createdAt,value
2019-04-16T00:01:32.399Z,47.50
2019-04-16T00:06:52.387Z,47.61
2019-04-16T00:11:55.950Z,47.55
2019-04-16T00:16:57.516Z,47.55
2019-04-16T00:22:00.996Z,47.49
2019-04-16T00:27:03.290Z,47.47
2019-04-16T00:32:09.141Z,47.53
2019-04-16T00:37:10.420Z,47.54
2019-04-16T00:42:12.090Z,47.50
2019-04-16T00:47:13.760Z,47.46
2019-04-16T00:52:15.327Z,47.41
2019-04-16T00:57:17.973Z,47.35
2019-04-16T01:02:20.412Z,47.34
2019-04-16T01:07:22.082Z,47.40
2019-04-16T01:12:23.850Z,47.36
2019-04-16T01:17:25.629Z,47.33
2019-04-16T01:22:27.300Z,47.32
2019-04-16T01:27:36.759Z,47.22
2019-04-16T01:32:57.060Z,47.29
2019-04-16T01:38:16.865Z,47.20
2019-04-16T01:43:19.759Z,47.18
2019-04-16T01:48:21.621Z,47.24
2019-04-16T01:53:23.403Z,47.19
2019-04-16T01:58:24.933Z,47.17
2019-04-16T02:03:26.699Z,47.11
2019-04-16T02:08:31.142Z,47.10
2019-04-16T02:13:32.775Z,46.83
2019-04-16T02:18:34.518Z,46.70
2019-04-16T02:23:36.082Z,46.66
2019-04-16T02:28:37.660Z,46.57
2019-04-16T02:33:39.323Z,46.53
2019-04-16T02:38:46.380Z,46.50
2019-04-16T02:43:44.415Z,46.51
2019-04-16T02:48:49.939Z,46.50
2019-04-16T02:53:54.479Z,46.46
2019-04-16T02:58:57.104Z,46.49
2019-04-16T03:04:13.010Z,46.49
2019-04-16T03:09:15.695Z,46.54
2019-04-16T03:14:17.579Z,46.54
2019-04-16T03:19:21.142Z,46.57
2019-04-16T03:24:22.910Z,46.60
2019-04-16T03:29:24.477Z,46.64
2019-04-16T03:34:26.203Z,46.61
2019-04-16T03:39:27.885Z,46.61
2019-04-16T03:44:29.554Z,46.68
2019-04-16T03:49:31.331Z,46.62
2019-04-16T03:54:33.195Z,47.10
2019-04-16T03:59:34.973Z,47.00
2019-04-16T04:04:36.747Z,46.18
2019-04-16T04:09:38.314Z,45.51
2019-04-16T04:14:39.970Z,44.04
2019-04-16T04:19:43.513Z,45.23
2019-04-16T04:24:45.477Z,46.11
2019-04-16T04:29:48.161Z,46.56
2019-04-16T04:34:49.842Z,46.92
2019-04-16T04:39:51.520Z,47.05
2019-04-16T04:44:53.154Z,46.81
2019-04-16T04:49:54.726Z,46.56
2019-04-16T04:54:56.314Z,46.78
2019-04-16T04:59:57.881Z,47.07
2019-04-16T05:05:01.397Z,46.88
2019-04-16T05:10:07.538Z,45.67
2019-04-16T05:15:08.281Z,46.79
2019-04-16T05:20:14.839Z,47.14
2019-04-16T05:25:13.514Z,47.39
2019-04-16T05:30:19.950Z,47.50
2019-04-16T05:35:18.909Z,47.66
2019-04-16T05:40:20.677Z,47.73
2019-04-16T05:45:22.693Z,47.82
2019-04-16T05:50:28.493Z,47.75
2019-04-16T05:55:35.621Z,47.73
2019-04-16T06:00:41.691Z,47.63
2019-04-16T06:05:43.750Z,47.67
2019-04-16T06:10:49.947Z,47.70
2019-04-16T06:15:52.967Z,47.71
2019-04-16T06:20:54.687Z,47.78
2019-04-16T06:26:16.631Z,47.81
2019-04-16T06:31:39.408Z,47.87
2019-04-16T06:36:45.157Z,47.84
2019-04-16T06:41:55.785Z,47.82
2019-04-16T06:47:10.590Z,47.89
2019-04-16T06:52:15.876Z,47.76
2019-04-16T06:57:18.989Z,47.68
2019-04-16T07:02:28.480Z,47.61
2019-04-16T07:07:39.584Z,47.51
2019-04-16T07:12:38.663Z,47.45
2019-04-16T07:17:40.390Z,47.38
2019-04-16T07:22:42.217Z,47.43
2019-04-16T07:27:45.843Z,47.38
2019-04-16T07:33:05.535Z,47.37
2019-04-16T07:38:12.017Z,47.33
2019-04-16T07:43:32.019Z,47.37
2019-04-16T07:48:36.557Z,47.45
2019-04-16T07:53:56.463Z,47.43
2019-04-16T07:59:01.328Z,47.43
2019-04-16T08:04:03.179Z,47.48
2019-04-16T08:09:06.174Z,47.48
2019-04-16T08:14:09.816Z,47.49
2019-04-16T08:19:12.148Z,47.50
2019-04-16T08:24:26.409Z,47.48
2019-04-16T08:29:28.579Z,47.44
2019-04-16T08:34:30.197Z,47.42
2019-04-16T08:39:31.762Z,47.39
2019-04-16T08:44:35.812Z,47.33
2019-04-16T08:49:36.889Z,47.38
2019-04-16T08:54:38.589Z,47.35
2019-04-16T08:59:42.615Z,47.36
2019-04-16T09:04:43.810Z,47.26
2019-04-16T09:09:47.327Z,47.17
2019-04-16T09:14:54.941Z,47.22
2019-04-16T09:19:54.868Z,47.24
2019-04-16T09:24:59.651Z,47.12
2019-04-16T09:30:10.228Z,47.19
2019-04-16T09:35:20.317Z,47.25
2019-04-16T09:40:30.663Z,47.25
2019-04-16T09:45:33.899Z,47.32
2019-04-16T09:50:36.217Z,47.39
2019-04-16T09:55:37.986Z,47.50
2019-04-16T10:00:41.421Z,47.53
2019-04-16T10:05:43.170Z,47.59
2019-04-16T10:10:44.913Z,47.46
2019-04-16T10:15:47.691Z,47.54
2019-04-16T10:20:49.545Z,47.48
2019-04-16T10:25:51.318Z,47.47
2019-04-16T10:30:54.401Z,47.52
2019-04-16T10:35:57.534Z,47.51
2019-04-16T10:41:10.546Z,47.44
2019-04-16T10:46:27.588Z,47.56
2019-04-16T10:51:36.830Z,47.52
2019-04-16T10:56:58.348Z,47.59
2019-04-16T11:02:02.102Z,47.50
2019-04-16T11:07:11.419Z,47.65
2019-04-16T11:12:13.096Z,47.69
2019-04-16T11:17:16.205Z,47.68
2019-04-16T11:22:18.060Z,47.64
2019-04-16T11:27:19.845Z,47.65
2019-04-16T11:32:25.985Z,47.62
2019-04-16T11:37:27.849Z,47.72
2019-04-16T11:42:29.424Z,47.62
2019-04-16T11:47:33.992Z,47.60
2019-04-16T11:52:34.830Z,47.73
2019-04-16T11:57:36.629Z,47.66
2019-04-16T12:02:49.123Z,47.63
2019-04-16T12:08:09.524Z,47.61
2019-04-16T12:13:19.285Z,47.72
2019-04-16T12:18:25.764Z,47.78
2019-04-16T12:23:29.985Z,47.87
2019-04-16T12:28:46.616Z,47.79
2019-04-16T12:33:52.701Z,47.88
2019-04-16T12:38:54.360Z,47.91
2019-04-16T12:43:58.927Z,47.91
2019-04-16T12:49:17.677Z,47.97
2019-04-16T12:54:33.340Z,47.96
2019-04-16T12:59:55.010Z,48.01
2019-04-16T13:05:01.594Z,48.00
2019-04-16T13:10:07.381Z,48.12
2019-04-16T13:15:14.952Z,48.15
2019-04-16T13:20:31.592Z,48.20
2019-04-16T13:25:35.218Z,48.21
2019-04-16T13:30:37.084Z,48.27
2019-04-16T13:35:38.776Z,48.25
2019-04-16T13:40:41.474Z,48.30
2019-04-16T13:45:43.527Z,48.35
2019-04-16T13:50:47.140Z,47.93
2019-04-16T13:56:08.127Z,47.66
2019-04-16T14:01:14.547Z,47.08
2019-04-16T14:06:16.329Z,46.89
2019-04-16T14:11:19.684Z,46.70
2019-04-16T14:16:21.514Z,46.29
2019-04-16T14:21:23.584Z,46.03
2019-04-16T14:26:25.264Z,46.25
2019-04-16T14:31:27.352Z,45.85
2019-04-16T14:36:29.321Z,45.79
2019-04-16T14:41:31.478Z,45.69
2019-04-16T14:46:33.276Z,45.30
2019-04-16T14:51:34.942Z,45.31
2019-04-16T14:56:41.116Z,45.20
2019-04-16T15:01:50.272Z,44.90
2019-04-16T15:06:53.776Z,44.91
2019-04-16T15:12:02.167Z,45.32
2019-04-16T15:17:03.469Z,45.17
2019-04-16T15:22:23.339Z,45.38
2019-04-16T15:27:31.664Z,45.12
2019-04-16T15:32:41.825Z,44.80
2019-04-16T15:37:45.561Z,44.77
2019-04-16T15:42:50.424Z,44.86
2019-04-16T15:47:54.292Z,45.86
2019-04-16T15:53:00.534Z,46.78
2019-04-16T15:58:07.763Z,47.22
2019-04-16T16:03:28.150Z,48.49
2019-04-16T16:08:47.018Z,48.07
2019-04-16T16:13:48.892Z,47.91
2019-04-16T16:18:50.770Z,48.70
2019-04-16T16:23:52.440Z,47.87
2019-04-16T16:28:54.539Z,47.90
2019-04-16T16:33:57.207Z,47.51
2019-04-16T16:38:59.330Z,47.26
2019-04-16T16:44:01.179Z,47.13
2019-04-16T16:49:03.276Z,47.11
2019-04-16T16:54:06.938Z,46.92
2019-04-16T16:59:13.276Z,47.11
2019-04-16T17:04:16.739Z,47.21
2019-04-16T17:09:20.870Z,47.09
2019-04-16T17:14:22.653Z,47.56
2019-04-16T17:19:24.526Z,47.55
2019-04-16T17:24:28.015Z,47.55
2019-04-16T17:29:29.814Z,47.77
2019-04-16T17:34:31.759Z,48.70
2019-04-16T17:39:42.254Z,50.06
2019-04-16T17:44:50.287Z,49.62
2019-04-16T17:50:02.523Z,50.58
2019-04-16T17:55:08.933Z,50.35
2019-04-16T18:00:19.468Z,50.40
2019-04-16T18:05:23.925Z,50.43
2019-04-16T18:10:36.529Z,50.39
2019-04-16T18:15:42.745Z,50.60
2019-04-16T18:20:59.635Z,50.02
2019-04-16T18:26:13.285Z,50.48
2019-04-16T18:31:23.364Z,50.91
2019-04-16T18:36:27.576Z,51.05
2019-04-16T18:41:31.945Z,51.31
2019-04-16T18:46:33.547Z,51.69
2019-04-16T18:51:35.354Z,51.21
2019-04-16T18:56:37.003Z,51.89
2019-04-16T19:01:40.649Z,51.63
2019-04-16T19:06:42.386Z,51.27
2019-04-16T19:11:45.220Z,50.96
2019-04-16T19:16:47.100Z,50.68
2019-04-16T19:21:52.210Z,50.59
2019-04-16T19:26:52.654Z,50.47
2019-04-16T19:31:56.906Z,50.35
2019-04-16T19:36:59.671Z,50.29
2019-04-16T19:42:02.512Z,50.18
2019-04-16T19:47:04.203Z,49.92
2019-04-16T19:52:06.002Z,50.08
2019-04-16T19:57:08.021Z,49.99
2019-04-16T20:02:10.000Z,49.80
2019-04-16T20:07:11.781Z,49.66
2019-04-16T20:12:13.342Z,49.58
2019-04-16T20:17:15.119Z,49.54
2019-04-16T20:22:16.904Z,49.58
2019-04-16T20:27:19.695Z,49.57
2019-04-16T20:32:21.989Z,49.61
2019-04-16T20:37:23.765Z,49.52
2019-04-16T20:42:25.432Z,49.94
2019-04-16T20:47:27.204Z,49.81
2019-04-16T20:52:30.830Z,49.64
2019-04-16T20:57:32.595Z,49.45
2019-04-16T21:02:34.331Z,49.39
2019-04-16T21:07:36.141Z,49.35
2019-04-16T21:12:37.905Z,49.32
2019-04-16T21:17:39.570Z,49.53
2019-04-16T21:22:41.249Z,49.65
2019-04-16T21:27:44.761Z,49.68
2019-04-16T21:32:48.726Z,49.32
2019-04-16T21:37:58.669Z,49.42
2019-04-16T21:43:00.492Z,49.58
2019-04-16T21:48:02.301Z,49.75
2019-04-16T21:53:04.080Z,49.79
2019-04-16T21:58:05.819Z,49.83
2019-04-16T22:03:12.336Z,49.92
2019-04-16T22:08:14.110Z,49.98
2019-04-16T22:13:19.149Z,50.14
2019-04-16T22:18:19.606Z,50.18
2019-04-16T22:23:21.389Z,50.24
2019-04-16T22:28:23.062Z,50.17
2019-04-16T22:33:24.707Z,50.16
2019-04-16T22:38:28.209Z,50.25
2019-04-16T22:43:34.604Z,50.23
2019-04-16T22:48:36.386Z,50.20
2019-04-16T22:53:38.160Z,50.18
2019-04-16T22:58:49.863Z,50.21
2019-04-16T23:03:53.355Z,50.23
2019-04-16T23:08:55.254Z,50.28
2019-04-16T23:13:57.090Z,50.26
2019-04-16T23:18:59.168Z,50.29
2019-04-16T23:24:01.222Z,50.26
2019-04-16T23:29:04.122Z,50.23
2019-04-16T23:34:06.968Z,50.16
2019-04-16T23:39:08.834Z,50.22
2019-04-16T23:44:22.698Z,50.22
2019-04-16T23:49:43.209Z,50.24
2019-04-16T23:54:44.899Z,50.32
